createdAt,value
2018-03-11T00:02:13.352Z,17.63
2018-03-11T00:04:40.822Z,18.62
2018-03-11T00:07:08.308Z,20.67
2018-03-11T00:09:35.790Z,16.97
2018-03-11T00:12:03.335Z,19.57
2018-03-11T00:14:30.799Z,19.57
2018-03-11T00:16:58.305Z,18.67
2018-03-11T00:19:25.775Z,17.73
2018-03-11T00:21:53.265Z,17.47
2018-03-11T00:24:21.542Z,18.03
2018-03-11T00:26:49.055Z,16.57
2018-03-11T00:29:16.563Z,16.07
2018-03-11T00:31:44.010Z,19.00
2018-03-11T00:34:11.466Z,18.47
2018-03-11T00:36:38.954Z,18.43
2018-03-11T00:39:06.484Z,18.43
2018-03-11T00:41:33.914Z,18.33
2018-03-11T00:44:01.395Z,19.67
2018-03-11T00:46:28.861Z,18.50
2018-03-11T00:48:56.315Z,18.43
2018-03-11T00:51:23.789Z,17.47
2018-03-11T00:53:52.027Z,18.53
2018-03-11T00:56:19.507Z,22.57
2018-03-11T00:58:46.967Z,19.13
2018-03-11T01:01:14.422Z,17.40
2018-03-11T01:03:41.892Z,17.43
2018-03-11T01:06:09.346Z,17.97
2018-03-11T01:08:36.810Z,19.77
2018-03-11T01:11:04.266Z,17.43
2018-03-11T01:13:31.739Z,21.50
2018-03-11T01:15:59.199Z,18.87
2018-03-11T01:18:26.682Z,17.13
2018-03-11T01:20:54.145Z,19.90
2018-03-11T01:23:21.812Z,19.13
2018-03-11T01:25:49.283Z,22.07
2018-03-11T01:28:16.769Z,21.67
2018-03-11T01:30:44.222Z,19.67
2018-03-11T01:33:11.682Z,19.27
2018-03-11T01:35:39.155Z,19.07
2018-03-11T01:38:07.387Z,20.63
2018-03-11T01:40:34.869Z,16.77
2018-03-11T01:43:02.327Z,17.37
2018-03-11T01:45:29.795Z,17.30
2018-03-11T01:47:57.260Z,16.03
2018-03-11T01:50:24.727Z,17.07
2018-03-11T01:53:03.934Z,22.20
2018-03-11T01:55:31.393Z,19.50
2018-03-11T01:57:58.851Z,20.50
2018-03-11T02:00:26.314Z,17.63
2018-03-11T02:02:53.777Z,19.03
2018-03-11T02:05:21.275Z,20.73
2018-03-11T02:07:48.753Z,16.20
2018-03-11T02:10:16.221Z,17.47
2018-03-11T02:12:43.688Z,18.40
2018-03-11T02:15:11.922Z,19.13
2018-03-11T02:17:39.386Z,17.13
2018-03-11T02:20:06.890Z,18.53
2018-03-11T02:22:34.350Z,17.83
2018-03-11T02:27:35.735Z,15.77
2018-03-11T02:30:03.197Z,17.10
2018-03-11T02:32:30.673Z,18.20
2018-03-11T02:34:58.132Z,16.60
2018-03-11T02:37:25.608Z,18.30
2018-03-11T02:39:53.071Z,18.23
2018-03-11T02:42:20.541Z,18.73
2018-03-11T02:44:48.767Z,21.77
2018-03-11T02:47:16.255Z,17.00
2018-03-11T02:49:43.723Z,20.03
2018-03-11T02:52:11.178Z,17.27
2018-03-11T02:54:38.649Z,21.07
2018-03-11T02:57:06.110Z,22.80
2018-03-11T02:59:33.578Z,16.40
2018-03-11T03:02:01.039Z,18.10
2018-03-11T03:04:28.507Z,22.00
2018-03-11T03:06:55.962Z,18.47
2018-03-11T03:09:23.432Z,18.97
2018-03-11T03:11:50.878Z,19.50
2018-03-11T03:14:18.338Z,27.80
2018-03-11T03:16:45.798Z,23.03
2018-03-11T03:19:13.266Z,25.53
2018-03-11T03:21:40.717Z,23.23
2018-03-11T03:24:08.205Z,22.33
2018-03-11T03:26:35.666Z,20.00
2018-03-11T03:29:03.156Z,28.80
2018-03-11T03:31:30.602Z,41.50
2018-03-11T03:33:58.832Z,46.40
2018-03-11T03:36:26.293Z,41.83
2018-03-11T03:38:53.745Z,31.50
2018-03-11T03:41:21.997Z,22.03
2018-03-11T03:43:49.473Z,17.83
2018-03-11T03:46:16.963Z,25.80
2018-03-11T03:48:44.418Z,29.23
2018-03-11T03:51:11.899Z,21.10
2018-03-11T03:53:39.352Z,28.97
2018-03-11T03:56:06.815Z,27.47
2018-03-11T03:58:34.277Z,32.10
2018-03-11T04:01:01.747Z,49.50
2018-03-11T04:03:29.204Z,76.17
2018-03-11T04:05:56.668Z,84.53
2018-03-11T04:08:24.132Z,138.70
2018-03-11T04:10:51.594Z,132.53
2018-03-11T04:13:19.062Z,49.90
2018-03-11T04:15:46.561Z,41.90
2018-03-11T04:18:14.031Z,26.90
2018-03-11T04:20:41.488Z,40.20
2018-03-11T04:23:08.954Z,28.33
2018-03-11T04:25:36.412Z,23.77
2018-03-11T04:28:03.878Z,23.37
2018-03-11T04:30:31.334Z,46.20
2018-03-11T04:32:58.802Z,42.57
2018-03-11T04:35:26.250Z,51.97
2018-03-11T04:37:53.717Z,73.33
2018-03-11T04:40:21.166Z,74.80
2018-03-11T04:42:48.638Z,42.20
2018-03-11T04:45:16.094Z,52.20
2018-03-11T04:47:43.563Z,29.87
2018-03-11T04:50:11.018Z,61.13
2018-03-11T04:52:38.494Z,43.20
2018-03-11T04:55:05.950Z,51.10
2018-03-11T04:57:33.414Z,40.53
2018-03-11T05:00:00.891Z,54.47
2018-03-11T05:02:29.108Z,73.83
2018-03-11T05:04:57.342Z,23.63
2018-03-11T05:07:24.799Z,34.97
2018-03-11T05:09:52.268Z,68.90
2018-03-11T05:12:19.714Z,38.27
2018-03-11T05:14:47.249Z,42.40
2018-03-11T05:17:14.662Z,34.63
2018-03-11T05:19:42.138Z,40.93
2018-03-11T05:22:09.589Z,46.77
2018-03-11T05:24:37.059Z,33.20
2018-03-11T05:27:04.510Z,29.47
2018-03-11T05:29:31.979Z,40.50
2018-03-11T05:31:59.443Z,26.83
2018-03-11T05:34:26.902Z,36.40
2018-03-11T05:36:54.361Z,24.73
2018-03-11T05:39:21.838Z,25.63
2018-03-11T05:41:49.294Z,30.30
2018-03-11T05:44:16.758Z,26.07
2018-03-11T05:46:44.228Z,31.27
2018-03-11T05:49:11.682Z,22.40
2018-03-11T05:51:39.147Z,26.50
2018-03-11T05:54:06.760Z,24.27
2018-03-11T05:56:34.171Z,24.57
2018-03-11T05:59:01.634Z,25.50
2018-03-11T06:01:29.118Z,24.10
2018-03-11T06:03:56.583Z,22.70
2018-03-11T06:06:24.057Z,25.37
2018-03-11T06:08:51.531Z,22.67
2018-03-11T06:11:19.743Z,22.90
2018-03-11T06:13:47.203Z,26.20
2018-03-11T06:16:14.674Z,25.30
2018-03-11T06:18:42.142Z,25.73
2018-03-11T06:21:09.602Z,26.57
2018-03-11T06:23:37.070Z,22.67
2018-03-11T06:26:04.559Z,23.90
2018-03-11T06:28:32.033Z,24.67
2018-03-11T06:30:59.498Z,23.00
2018-03-11T06:33:26.958Z,22.20
2018-03-11T06:35:54.415Z,22.47
2018-03-11T06:38:21.890Z,23.33
2018-03-11T06:40:49.342Z,20.83
2018-03-11T06:43:16.811Z,22.73
2018-03-11T06:45:44.271Z,21.53
2018-03-11T06:48:12.498Z,23.67
2018-03-11T06:50:39.962Z,25.40
2018-03-11T06:53:07.442Z,20.77
2018-03-11T06:55:34.898Z,22.60
2018-03-11T06:58:02.370Z,21.30
2018-03-11T07:00:29.830Z,19.37
2018-03-11T07:02:57.298Z,21.20
2018-03-11T07:05:24.750Z,23.83
2018-03-11T07:07:52.215Z,19.93
2018-03-11T07:10:19.670Z,21.47
2018-03-11T07:12:47.178Z,22.07
2018-03-11T07:15:14.654Z,20.43
2018-03-11T07:17:42.106Z,21.43
2018-03-11T07:20:09.571Z,21.00
2018-03-11T07:22:37.021Z,22.37
2018-03-11T07:25:04.558Z,22.33
2018-03-11T07:27:32.018Z,21.80
2018-03-11T07:29:59.521Z,20.90
2018-03-11T07:32:26.973Z,20.90
2018-03-11T07:34:54.450Z,21.47
2018-03-11T07:37:21.916Z,19.43
2018-03-11T07:39:49.376Z,19.67
2018-03-11T07:42:16.831Z,21.40
2018-03-11T07:44:44.300Z,23.33
2018-03-11T07:47:11.812Z,22.33
2018-03-11T07:49:39.294Z,20.57
2018-03-11T07:52:06.824Z,20.43
2018-03-11T07:54:34.266Z,20.97
2018-03-11T07:57:01.722Z,21.10
2018-03-11T07:59:29.186Z,21.27
2018-03-11T08:01:56.647Z,19.77
2018-03-11T08:04:24.144Z,21.63
2018-03-11T08:06:51.600Z,21.97
2018-03-11T08:09:19.063Z,20.93
2018-03-11T08:11:46.531Z,22.37
2018-03-11T08:14:13.997Z,19.93
2018-03-11T08:16:41.462Z,22.40
2018-03-11T08:19:08.918Z,21.83
2018-03-11T08:21:36.434Z,21.93
2018-03-11T08:24:03.903Z,20.50
2018-03-11T08:26:31.371Z,20.80
2018-03-11T08:28:58.825Z,20.30
2018-03-11T08:31:26.308Z,20.20
2018-03-11T08:33:53.769Z,20.20
2018-03-11T08:36:21.395Z,21.13
2018-03-11T08:38:48.897Z,22.10
2018-03-11T08:41:16.367Z,20.53
2018-03-11T08:43:43.825Z,21.83
2018-03-11T08:46:11.307Z,20.50
2018-03-11T08:48:38.782Z,21.17
2018-03-11T08:51:06.249Z,20.60
2018-03-11T08:53:33.718Z,20.57
2018-03-11T08:56:01.198Z,21.33
2018-03-11T08:58:28.659Z,19.70
2018-03-11T09:00:56.190Z,20.77
2018-03-11T09:03:23.664Z,19.73
2018-03-11T09:05:51.121Z,20.43
2018-03-11T09:08:18.605Z,20.37
2018-03-11T09:10:46.834Z,20.40
2018-03-11T09:13:14.306Z,19.90
2018-03-11T09:15:41.808Z,20.47
2018-03-11T09:18:09.238Z,19.33
2018-03-11T09:20:36.704Z,19.73
2018-03-11T09:23:04.214Z,19.33
2018-03-11T09:25:31.678Z,19.17
2018-03-11T09:27:59.146Z,16.73
2018-03-11T09:30:26.598Z,17.20
2018-03-11T09:32:54.066Z,18.30
2018-03-11T09:35:21.553Z,17.93
2018-03-11T09:37:49.786Z,18.70
2018-03-11T09:40:18.080Z,17.03
2018-03-11T09:42:45.593Z,17.93
2018-03-11T09:45:13.224Z,17.67
2018-03-11T09:47:40.970Z,19.77
2018-03-11T09:50:08.468Z,16.40
2018-03-11T09:52:35.958Z,17.00
2018-03-11T09:55:03.409Z,17.83
2018-03-11T09:57:30.875Z,16.50
2018-03-11T09:59:58.342Z,18.07
2018-03-11T10:02:25.843Z,16.83
2018-03-11T10:04:53.307Z,15.83
2018-03-11T10:07:20.786Z,15.27
2018-03-11T10:09:48.261Z,14.43
2018-03-11T10:12:15.742Z,13.83
2018-03-11T10:14:43.205Z,14.37
2018-03-11T10:17:10.672Z,14.53
2018-03-11T10:19:38.943Z,16.20
2018-03-11T10:22:06.406Z,14.97
2018-03-11T10:24:34.641Z,14.53
2018-03-11T10:27:02.136Z,13.83
2018-03-11T10:29:31.116Z,15.33
2018-03-11T10:31:58.583Z,15.27
2018-03-11T10:34:26.820Z,12.77
2018-03-11T10:36:54.320Z,13.50
2018-03-11T10:39:21.837Z,14.57
2018-03-11T10:41:49.370Z,16.03
2018-03-11T10:44:16.831Z,15.70
2018-03-11T10:46:44.307Z,12.80
2018-03-11T10:49:11.860Z,15.60
2018-03-11T10:51:39.327Z,13.67
2018-03-11T10:54:06.816Z,15.50
2018-03-11T10:56:34.282Z,15.77
2018-03-11T10:59:01.833Z,20.43
2018-03-11T11:01:35.676Z,13.93
2018-03-11T11:04:03.146Z,13.67
2018-03-11T11:06:30.655Z,17.70
2018-03-11T11:08:58.870Z,15.73
2018-03-11T11:11:26.356Z,14.90
2018-03-11T11:13:53.830Z,11.30
2018-03-11T11:16:21.329Z,11.33
2018-03-11T11:18:48.864Z,11.07
2018-03-11T11:21:17.082Z,11.90
2018-03-11T11:23:44.554Z,14.23
2018-03-11T11:26:12.038Z,12.97
2018-03-11T11:28:39.536Z,14.40
2018-03-11T11:31:07.011Z,13.73
2018-03-11T11:33:34.502Z,12.70
2018-03-11T11:36:01.958Z,11.77
2018-03-11T11:38:29.439Z,11.57
2018-03-11T11:40:57.703Z,11.70
2018-03-11T11:43:25.170Z,13.17
2018-03-11T11:45:52.630Z,12.00
2018-03-11T11:48:21.968Z,11.63
2018-03-11T11:50:49.436Z,11.90
2018-03-11T11:53:16.898Z,12.03
2018-03-11T11:55:44.382Z,12.50
2018-03-11T11:58:12.745Z,16.67
2018-03-11T12:00:40.213Z,11.30
2018-03-11T12:03:07.677Z,12.23
2018-03-11T12:05:35.141Z,13.53
2018-03-11T12:08:03.371Z,16.27
2018-03-11T12:10:30.862Z,15.13
2018-03-11T12:12:58.324Z,12.37
2018-03-11T12:15:25.806Z,15.00
2018-03-11T12:17:53.291Z,16.37
2018-03-11T12:20:20.765Z,14.00
2018-03-11T12:22:48.225Z,13.37
2018-03-11T12:25:15.697Z,11.40
2018-03-11T12:27:43.183Z,11.93
2018-03-11T12:30:11.419Z,10.93
2018-03-11T12:32:38.882Z,10.90
2018-03-11T12:35:06.350Z,9.70
2018-03-11T12:37:33.839Z,10.07
2018-03-11T12:40:01.294Z,9.60
2018-03-11T12:42:28.770Z,7.93
2018-03-11T12:44:56.243Z,5.73
2018-03-11T12:47:23.709Z,5.83
2018-03-11T12:49:51.158Z,6.73
2018-03-11T12:52:18.622Z,5.00
2018-03-11T12:54:46.083Z,5.77
2018-03-11T12:57:13.554Z,4.47
2018-03-11T12:59:41.046Z,6.70
2018-03-11T13:02:08.515Z,4.80
2018-03-11T13:04:35.978Z,5.67
2018-03-11T13:07:03.458Z,4.90
2018-03-11T13:09:30.922Z,5.00
2018-03-11T13:11:58.403Z,5.13
2018-03-11T13:14:25.859Z,3.70
2018-03-11T13:16:53.340Z,9.43
2018-03-11T13:19:20.821Z,5.93
2018-03-11T13:21:48.303Z,4.83
2018-03-11T13:24:15.758Z,3.93
2018-03-11T13:26:43.220Z,5.33
2018-03-11T13:29:10.852Z,4.83
2018-03-11T13:31:38.315Z,4.20
2018-03-11T13:37:04.719Z,5.20
2018-03-11T13:39:44.034Z,6.57
2018-03-11T13:42:11.495Z,8.17
2018-03-11T13:44:38.996Z,7.40
2018-03-11T13:47:08.065Z,6.73
2018-03-11T13:49:35.539Z,5.83
2018-03-11T13:52:14.702Z,4.67
2018-03-11T13:54:42.179Z,7.53
2018-03-11T13:57:32.335Z,5.57
2018-03-11T13:59:59.807Z,5.30
2018-03-11T14:02:27.258Z,4.00
2018-03-11T14:04:54.770Z,4.50
2018-03-11T14:07:22.991Z,4.30
2018-03-11T14:09:50.482Z,5.13
2018-03-11T14:12:17.965Z,4.90
2018-03-11T14:14:45.421Z,7.70
2018-03-11T14:17:12.893Z,5.70
2018-03-11T14:19:40.358Z,5.97
2018-03-11T14:22:07.811Z,7.20
2018-03-11T14:24:35.261Z,7.37
2018-03-11T14:27:02.735Z,10.13
2018-03-11T14:29:30.215Z,6.53
2018-03-11T14:31:57.695Z,6.37
2018-03-11T14:34:25.151Z,6.57
2018-03-11T14:36:52.650Z,6.50
2018-03-11T14:39:20.116Z,7.50
2018-03-11T14:41:47.590Z,10.30
2018-03-11T14:44:15.047Z,9.00
2018-03-11T14:46:42.519Z,8.77
2018-03-11T14:49:09.979Z,8.77
2018-03-11T14:51:37.445Z,8.33
2018-03-11T14:54:04.890Z,8.47
2018-03-11T14:56:32.374Z,10.40
2018-03-11T14:58:59.815Z,9.63
2018-03-11T15:01:27.283Z,10.10
2018-03-11T15:03:54.998Z,11.27
2018-03-11T15:06:22.516Z,13.30
2018-03-11T15:08:49.999Z,10.33
2018-03-11T15:11:17.487Z,12.53
2018-03-11T15:13:44.934Z,11.10
2018-03-11T15:16:12.760Z,9.53
2018-03-11T15:18:40.975Z,8.77
2018-03-11T15:21:08.485Z,8.00
2018-03-11T15:23:35.945Z,9.80
2018-03-11T15:26:04.177Z,9.77
2018-03-11T15:28:31.647Z,10.53
2018-03-11T15:30:59.098Z,11.80
2018-03-11T15:33:26.558Z,8.63
2018-03-11T15:35:54.048Z,9.17
2018-03-11T15:38:22.273Z,9.30
2018-03-11T15:40:49.730Z,7.87
2018-03-11T15:43:17.218Z,9.57
2018-03-11T15:45:44.727Z,8.57
2018-03-11T15:48:12.153Z,9.10
2018-03-11T15:50:40.387Z,9.40
2018-03-11T15:53:07.850Z,8.27
2018-03-11T15:55:35.308Z,6.70
2018-03-11T15:58:02.795Z,6.73
2018-03-11T16:00:30.254Z,7.40
2018-03-11T16:02:57.719Z,7.63
2018-03-11T16:05:25.187Z,7.57
2018-03-11T16:07:52.641Z,8.23
2018-03-11T16:10:20.115Z,8.73
2018-03-11T16:12:47.584Z,6.77
2018-03-11T16:15:15.043Z,7.97
2018-03-11T16:17:42.517Z,9.70
2018-03-11T16:20:09.997Z,10.07
2018-03-11T16:22:37.455Z,10.73
2018-03-11T16:25:04.922Z,20.63
2018-03-11T16:27:32.423Z,24.63
2018-03-11T16:29:59.914Z,27.10
2018-03-11T16:32:27.350Z,20.67
2018-03-11T16:34:54.829Z,17.13
2018-03-11T16:37:22.299Z,11.13
2018-03-11T16:39:49.807Z,20.33
2018-03-11T16:42:17.272Z,12.13
2018-03-11T16:44:44.760Z,11.00
2018-03-11T16:47:12.215Z,9.60
2018-03-11T16:49:39.678Z,11.63
2018-03-11T16:52:07.156Z,8.90
2018-03-11T16:54:34.618Z,7.90
2018-03-11T16:57:02.074Z,7.50
2018-03-11T16:59:29.527Z,3.40
2018-03-11T17:01:57.007Z,4.07
2018-03-11T17:04:24.475Z,4.13
2018-03-11T17:06:51.934Z,3.77
2018-03-11T17:09:19.388Z,4.27
2018-03-11T17:11:46.842Z,3.33
2018-03-11T17:14:14.322Z,9.10
2018-03-11T17:16:41.783Z,6.07
2018-03-11T17:19:09.238Z,3.20
2018-03-11T17:21:36.734Z,5.90
2018-03-11T17:24:04.249Z,3.57
2018-03-11T17:26:31.709Z,8.03
2018-03-11T17:28:59.159Z,7.13
2018-03-11T17:31:26.616Z,5.00
2018-03-11T17:33:54.091Z,3.50
2018-03-11T17:36:21.563Z,3.10
2018-03-11T17:38:49.034Z,2.33
2018-03-11T17:41:17.253Z,3.70
2018-03-11T17:43:44.716Z,2.37
2018-03-11T17:46:12.166Z,3.23
2018-03-11T17:48:40.367Z,2.53
2018-03-11T17:51:07.818Z,4.60
2018-03-11T17:53:35.286Z,4.33
2018-03-11T17:56:02.735Z,9.23
2018-03-11T17:58:30.201Z,4.30
2018-03-11T18:00:57.667Z,5.70
2018-03-11T18:03:25.134Z,7.30
2018-03-11T18:05:53.366Z,3.87
2018-03-11T18:08:20.844Z,5.40
2018-03-11T18:10:48.306Z,6.60
2018-03-11T18:13:15.759Z,10.17
2018-03-11T18:15:43.246Z,10.80
2018-03-11T18:18:11.467Z,7.47
2018-03-11T18:20:38.943Z,7.40
2018-03-11T18:23:06.408Z,7.67
2018-03-11T18:25:33.887Z,6.47
2018-03-11T18:28:01.360Z,52.73
2018-03-11T18:30:28.831Z,21.87
2018-03-11T18:32:56.299Z,10.17
2018-03-11T18:35:23.782Z,8.63
2018-03-11T18:37:52.010Z,8.67
2018-03-11T18:40:19.482Z,9.37
2018-03-11T18:42:46.940Z,8.20
2018-03-11T18:45:14.470Z,5.70
2018-03-11T18:47:42.682Z,5.97
2018-03-11T18:50:10.171Z,11.23
2018-03-11T18:52:37.635Z,3.43
2018-03-11T18:55:05.103Z,2.83
2018-03-11T18:57:32.559Z,6.20
2018-03-11T19:00:00.023Z,5.43
2018-03-11T19:02:28.240Z,6.37
2018-03-11T19:04:55.726Z,4.57
2018-03-11T19:07:23.190Z,5.20
2018-03-11T19:09:50.663Z,11.13
2018-03-11T19:12:18.123Z,11.40
2018-03-11T19:14:45.596Z,10.03
2018-03-11T19:17:13.831Z,11.47
2018-03-11T19:19:41.300Z,7.13
2018-03-11T19:22:08.779Z,4.70
2018-03-11T19:24:36.238Z,12.43
2018-03-11T19:27:04.473Z,7.27
2018-03-11T19:29:31.922Z,8.33
2018-03-11T19:31:59.409Z,6.93
2018-03-11T19:34:26.902Z,4.97
2018-03-11T19:36:54.362Z,4.13
2018-03-11T19:39:21.859Z,5.13
2018-03-11T19:41:49.417Z,7.03
2018-03-11T19:44:16.823Z,3.50
2018-03-11T19:46:44.293Z,4.87
2018-03-11T19:49:11.755Z,3.73
2018-03-11T19:51:39.236Z,3.50
2018-03-11T19:54:06.686Z,4.30
2018-03-11T19:56:34.158Z,4.03
2018-03-11T19:59:01.610Z,4.17
2018-03-11T20:01:29.080Z,5.50
2018-03-11T20:03:56.541Z,5.97
2018-03-11T20:06:24.006Z,5.43
2018-03-11T20:08:51.483Z,8.03
2018-03-11T20:11:18.943Z,5.53
2018-03-11T20:13:47.162Z,7.73
2018-03-11T20:16:14.622Z,5.10
2018-03-11T20:18:42.084Z,4.87
2018-03-11T20:21:09.552Z,6.37
2018-03-11T20:23:36.998Z,5.97
2018-03-11T20:26:04.476Z,4.80
2018-03-11T20:28:31.960Z,6.00
2018-03-11T20:30:59.460Z,6.50
2018-03-11T20:33:26.954Z,12.43
2018-03-11T20:35:54.442Z,9.87
2018-03-11T20:38:21.901Z,7.73
2018-03-11T20:40:49.415Z,8.63
2018-03-11T20:43:16.877Z,10.80
2018-03-11T20:45:44.358Z,8.63
2018-03-11T20:48:12.675Z,9.50
2018-03-11T20:50:40.174Z,7.23
2018-03-11T20:53:07.646Z,7.30
2018-03-11T20:55:35.904Z,7.33
2018-03-11T20:58:03.417Z,6.57
2018-03-11T21:00:30.924Z,18.20
2018-03-11T21:02:58.403Z,12.93
2018-03-11T21:05:26.658Z,18.70
2018-03-11T21:07:54.138Z,25.33
2018-03-11T21:10:21.600Z,12.57
2018-03-11T21:12:49.114Z,14.87
2018-03-11T21:15:16.714Z,11.60
2018-03-11T21:17:44.199Z,20.03
2018-03-11T21:20:11.686Z,29.33
2018-03-11T21:22:39.165Z,10.27
2018-03-11T21:25:06.625Z,8.97
2018-03-11T21:27:34.128Z,10.80
2018-03-11T21:30:01.639Z,26.30
2018-03-11T21:32:29.114Z,25.00
2018-03-11T21:34:57.341Z,25.57
2018-03-11T21:37:24.847Z,21.13
2018-03-11T21:39:53.078Z,17.80
2018-03-11T21:42:20.548Z,14.47
2018-03-11T21:44:48.012Z,17.40
2018-03-11T21:47:15.483Z,13.43
2018-03-11T21:49:42.964Z,12.63
2018-03-11T21:52:10.452Z,13.57
2018-03-11T21:54:37.919Z,12.57
2018-03-11T21:57:05.372Z,7.47
2018-03-11T21:59:32.852Z,9.00
2018-03-11T22:02:00.306Z,8.60
2018-03-11T22:04:27.763Z,7.87
2018-03-11T22:06:57.129Z,11.97
2018-03-11T22:09:24.600Z,14.07
2018-03-11T22:11:52.064Z,13.20
2018-03-11T22:14:19.625Z,12.63
2018-03-11T22:16:47.085Z,11.83
2018-03-11T22:19:14.562Z,10.60
2018-03-11T22:21:42.023Z,12.67
2018-03-11T22:24:09.491Z,12.03
2018-03-11T22:26:36.949Z,8.43
2018-03-11T22:29:04.419Z,11.67
2018-03-11T22:31:31.869Z,9.40
2018-03-11T22:33:59.397Z,12.53
2018-03-11T22:36:26.879Z,8.27
2018-03-11T22:38:54.343Z,8.80
2018-03-11T22:41:21.820Z,11.13
2018-03-11T22:43:49.283Z,14.67
2018-03-11T22:46:16.790Z,11.03
2018-03-11T22:48:45.045Z,9.83
2018-03-11T22:51:12.511Z,11.17
2018-03-11T22:53:39.971Z,13.47
2018-03-11T22:56:07.458Z,11.47
2018-03-11T22:58:34.922Z,11.67
2018-03-11T23:01:02.441Z,12.53
2018-03-11T23:03:29.914Z,11.03
2018-03-11T23:05:58.149Z,8.13
2018-03-11T23:08:25.618Z,10.47
2018-03-11T23:10:53.174Z,10.50
2018-03-11T23:13:20.640Z,9.07
2018-03-11T23:15:48.090Z,11.80
2018-03-11T23:18:15.542Z,10.30
2018-03-11T23:20:43.010Z,10.50
2018-03-11T23:23:10.486Z,9.67
2018-03-11T23:25:37.955Z,10.93
2018-03-11T23:28:06.204Z,10.13
2018-03-11T23:30:33.694Z,10.73
2018-03-11T23:33:01.156Z,9.30
2018-03-11T23:35:28.616Z,12.50
2018-03-11T23:40:29.883Z,10.33
2018-03-11T23:42:57.331Z,9.67
2018-03-11T23:45:24.785Z,7.90
2018-03-11T23:47:52.263Z,7.27
2018-03-11T23:50:19.718Z,11.43
2018-03-11T23:52:47.186Z,13.53
2018-03-11T23:55:14.655Z,13.27
2018-03-11T23:57:42.118Z,15.30
